地図

経路データ

SID SEASON NUMBER BASIN SUBBASIN NAME ISO_TIME NATURE LAT LON WMO_WIND WMO_PRES WMO_AGENCY TRACK_TYPE DIST2LAND LANDFALL IFLAG USA_AGENCY USA_ATCF_ID USA_LAT USA_LON USA_RECORD USA_STATUS USA_WIND USA_PRES USA_SSHS USA_R34_NE USA_R34_SE USA_R34_SW USA_R34_NW USA_R50_NE USA_R50_SE USA_R50_SW USA_R50_NW USA_R64_NE USA_R64_SE USA_R64_SW USA_R64_NW USA_POCI USA_ROCI USA_RMW USA_EYE TOKYO_LAT TOKYO_LON TOKYO_GRADE TOKYO_WIND TOKYO_PRES TOKYO_R50_DIR TOKYO_R50_LONG TOKYO_R50_SHORT TOKYO_R30_DIR TOKYO_R30_LONG TOKYO_R30_SHORT TOKYO_LAND CMA_LAT CMA_LON CMA_CAT CMA_WIND CMA_PRES HKO_LAT HKO_LON HKO_CAT HKO_WIND HKO_PRES NEWDELHI_LAT NEWDELHI_LON NEWDELHI_GRADE NEWDELHI_WIND NEWDELHI_PRES NEWDELHI_CI NEWDELHI_DP NEWDELHI_POCI REUNION_LAT REUNION_LON REUNION_TYPE REUNION_WIND REUNION_PRES REUNION_TNUM REUNION_CI REUNION_RMW REUNION_R34_NE REUNION_R34_SE REUNION_R34_SW REUNION_R34_NW REUNION_R50_NE REUNION_R50_SE REUNION_R50_SW REUNION_R50_NW REUNION_R64_NE REUNION_R64_SE REUNION_R64_SW REUNION_R64_NW BOM_LAT BOM_LON BOM_TYPE BOM_WIND BOM_PRES BOM_TNUM BOM_CI BOM_RMW BOM_R34_NE BOM_R34_SE BOM_R34_SW BOM_R34_NW BOM_R50_NE BOM_R50_SE BOM_R50_SW BOM_R50_NW BOM_R64_NE BOM_R64_SE BOM_R64_SW BOM_R64_NW BOM_ROCI BOM_POCI BOM_EYE BOM_POS_METHOD BOM_PRES_METHOD NADI_LAT NADI_LON NADI_CAT NADI_WIND NADI_PRES WELLINGTON_LAT WELLINGTON_LON WELLINGTON_WIND WELLINGTON_PRES DS824_LAT DS824_LON DS824_STAGE DS824_WIND DS824_PRES TD9636_LAT TD9636_LON TD9636_STAGE TD9636_WIND TD9636_PRES TD9635_LAT TD9635_LON TD9635_WIND TD9635_PRES TD9635_ROCI NEUMANN_LAT NEUMANN_LON NEUMANN_CLASS NEUMANN_WIND NEUMANN_PRES MLC_LAT MLC_LON MLC_CLASS MLC_WIND MLC_PRES USA_GUST BOM_GUST BOM_GUST_PER REUNION_GUST REUNION_GUST_PER USA_SEAHGT USA_SEARAD_NE USA_SEARAD_SE USA_SEARAD_SW USA_SEARAD_NW STORM_SPEED STORM_DIR
1959253N21086 1959 78 NI BB NOT_NAMED 1959-09-09 18:00:00 TS 21.5000 86.0000 main 0 0 O________O____ jtwc_io IO121959 21.5000 86.0000 -1 21.5000 86.0000 TC 3 249
1959253N21086 1959 78 NI BB NOT_NAMED 1959-09-09 21:00:00 TS 21.4401 85.8325 main 0 0 P________P____ IO121959 21.4401 85.8325 -1 21.4401 85.8325 TC 3 250
1959253N21086 1959 78 NI BB NOT_NAMED 1959-09-10 00:00:00 TS 21.4000 85.7000 main 0 0 O________O____ jtwc_io IO121959 21.4000 85.7000 -1 21.4000 85.7000 TC 25 2 256
1959253N21086 1959 78 NI BB NOT_NAMED 1959-09-10 03:00:00 TS 21.3933 85.6245 main 0 0 P________PO___ IO121959 21.3925 85.6275 -1 21.3925 85.6275 TC 25 21.4000 85.6000 1 1 270
1959253N21086 1959 78 NI BB NOT_NAMED 1959-09-10 06:00:00 TS 21.3994 85.5966 main 0 0 O________OP___ jtwc_io IO121959 21.4000 85.6000 -1 21.4000 85.6000 TC 25 21.3969 85.5828 1 0 278
1959253N21086 1959 78 NI BB NOT_NAMED 1959-09-10 09:00:00 TS 21.3987 85.5870 main 0 0 P________PP___ IO121959 21.4000 85.5925 -1 21.4000 85.5925 TC 25 21.3951 85.5725 1 0 0
1959253N21086 1959 78 NI BB NOT_NAMED 1959-09-10 12:00:00 TS 21.3986 85.5920 main 0 0 O________OP___ jtwc_io IO121959 21.4000 85.6000 -1 21.4000 85.6000 TC 25 21.3957 85.5759 1 0 0
1959253N21086 1959 78 NI BB NOT_NAMED 1959-09-10 15:00:00 TS 21.4000 85.6000 main 0 0 P________PO___ IO121959 21.4000 85.6000 -1 21.4000 85.6000 TC 25 21.4000 85.6000 1 0 0
1959253N21086 1959 78 NI BB NOT_NAMED 1959-09-10 18:00:00 TS 21.4027 85.6149 main 0 0 O________OP___ jtwc_io IO121959 21.4000 85.6000 -1 21.4000 85.6000 TC 25 21.4080 85.6447 1 0 83
1959253N21086 1959 78 NI BB NOT_NAMED 1959-09-10 21:00:00 TS 21.4049 85.6325 main 0 0 P________PP___ IO121959 21.4000 85.6075 -1 21.4000 85.6075 TC 25 21.4147 85.6826 1 0 0
1959253N21086 1959 78 NI BB NOT_NAMED 1959-09-11 00:00:00 TS 21.4047 85.6264 main 0 0 O________OP___ jtwc_io IO121959 21.4000 85.6000 -1 21.4000 85.6000 TC 25 21.4141 85.6792 1 0 270
1959253N21086 1959 78 NI BB NOT_NAMED 1959-09-11 03:00:00 TS 21.4049 85.6017 main 0 0 P________PO___ IO121959 21.4074 85.6025 -1 21.4074 85.6025 TC 25 21.4000 85.6000 1 1 264
1959253N21086 1959 78 NI BB NOT_NAMED 1959-09-11 06:00:00 TS 21.3882 85.4666 main 0 0 O________OP___ jtwc_io IO121959 21.4000 85.5000 -1 21.4000 85.5000 TC 25 21.3647 85.3999 1 4 262
1959253N21086 1959 78 NI BB NOT_NAMED 1959-09-11 09:00:00 TS 21.3486 85.1666 main 0 0 P________PP___ IO121959 21.3652 85.1875 -1 21.3652 85.1875 TC 25 21.3154 85.1248 1 6 261
1959253N21086 1959 78 NI BB NOT_NAMED 1959-09-11 12:00:00 TS 21.2861 84.8041 main 0 0 O________OP___ jtwc_io IO121959 21.3000 84.8000 -1 21.3000 84.8000 TC 25 21.2584 84.8124 1 6 257
1959253N21086 1959 78 NI BB NOT_NAMED 1959-09-11 15:00:00 TS 21.2000 84.4900 main 0 0 P________PO___ IO121959 21.1999 84.4850 -1 21.1999 84.4850 TC 25 21.2000 84.5000 1 6 253
1959253N21086 1959 78 NI BB NOT_NAMED 1959-09-11 18:00:00 TS 21.1153 84.2102 main 0 0 O________OP___ jtwc_io IO121959 21.1000 84.2000 -1 21.1000 84.2000 TC 25 21.1459 84.2306 1 5 254
1959253N21086 1959 78 NI BB NOT_NAMED 1959-09-11 21:00:00 TS 21.0541 83.9467 main 0 0 P________PP___ IO121959 21.0350 83.9350 -1 21.0350 83.9350 TC 25 21.0925 83.9700 1 5 258
1959253N21086 1959 78 NI BB NOT_NAMED 1959-09-12 00:00:00 TS 21.0143 83.7081 main 0 0 O________OP___ jtwc_io IO121959 21.0000 83.7000 -1 21.0000 83.7000 TC 25 21.0428 83.7244 1 4 263
1959253N21086 1959 78 NI BB NOT_NAMED 1959-09-12 03:00:00 TS 21.0000 83.4900 main 0 0 P________PO___ IO121959 21.0000 83.4851 -1 21.0000 83.4851 TC 25 21.0000 83.5000 1 4 266
1959253N21086 1959 78 NI BB NOT_NAMED 1959-09-12 06:00:00 TS 20.9892 83.3025 main 0 0 O________OP___ jtwc_io IO121959 21.0000 83.3000 -1 21.0000 83.3000 TC 25 20.9676 83.3076 1 3 261
1959253N21086 1959 78 NI BB NOT_NAMED 1959-09-12 09:00:00 TS 20.9474 83.1450 main 0 0 P________PP___ IO121959 20.9499 83.1500 -1 20.9499 83.1500 TC 25 20.9422 83.1351 1 3 254
1959253N21086 1959 78 NI BB NOT_NAMED 1959-09-12 12:00:00 TS 20.9069 82.9900 main 0 0 O________OP___ jtwc_io IO121959 20.9000 83.0000 -1 20.9000 83.0000 TC 25 20.9207 82.9701 1 3 262
1959253N21086 1959 78 NI BB NOT_NAMED 1959-09-12 15:00:00 TS 20.9000 82.8000 main 0 0 P________PO___ IO121959 20.9000 82.8000 -1 20.9000 82.8000 TC 25 20.9000 82.8000 1 4 267
1959253N21086 1959 78 NI BB NOT_NAMED 1959-09-12 18:00:00 TS 20.8902 82.6119 main 0 0 O________OP___ jtwc_io IO121959 20.9000 82.6000 -1 20.9000 82.6000 TC 25 20.8706 82.6356 1 3 260
1959253N21086 1959 78 NI BB NOT_NAMED 1959-09-12 21:00:00 TS 20.8472 82.4633 main 0 0 P________PP___ IO121959 20.8499 82.4650 -1 20.8499 82.4650 TC 25 20.8420 82.4600 1 3 255
1959253N21086 1959 78 NI BB NOT_NAMED 1959-09-13 00:00:00 TS 20.8058 82.2848 main 0 0 O________OP___ jtwc_io IO121959 20.8000 82.3000 -1 20.8000 82.3000 TC 25 20.8174 82.2543 1 4 263
1959253N21086 1959 78 NI BB NOT_NAMED 1959-09-13 03:00:00 TS 20.7950 82.0250 main 0 0 P________PO___ IO121959 20.7925 82.0375 -1 20.7925 82.0375 TC 25 20.8000 82.0000 1 6 269
1959253N21086 1959 78 NI BB NOT_NAMED 1959-09-13 06:00:00 TS 20.7936 81.6931 main 0 0 O________OP___ jtwc_io IO121959 20.8000 81.7000 -1 20.8000 81.7000 TC 25 20.7808 81.6792 1 7 270
1959253N21086 1959 78 NI BB NOT_NAMED 1959-09-13 09:00:00 TS 20.7900 81.3132 main 0 0 P________PP___ IO121959 20.8000 81.3150 -1 20.8000 81.3150 TC 25 20.7701 81.3097 1 7 270
1959253N21086 1959 78 NI BB NOT_NAMED 1959-09-13 12:00:00 TS 20.7915 80.9035 main 0 0 O________OP___ jtwc_io IO121959 20.8000 80.9000 -1 20.8000 80.9000 TC 25 20.7744 80.9104 1 8 270
1959253N21086 1959 78 NI BB NOT_NAMED 1959-09-13 15:00:00 TS 20.7949 80.5000 main 0 0 P________PO___ IO121959 20.7924 80.4999 -1 20.7924 80.4999 TC 25 20.8000 80.5000 1 8 270
1959253N21086 1959 78 NI BB NOT_NAMED 1959-09-13 18:00:00 TS 20.7961 80.0994 main 0 0 O________OP___ jtwc_io IO121959 20.8000 80.1000 -1 20.8000 80.1000 TC 25 20.7884 80.0981 1 8 271
1959253N21086 1959 78 NI BB NOT_NAMED 1959-09-13 21:00:00 TS 20.8058 79.6918 main 0 0 P________PP___ IO121959 20.8050 79.6923 -1 20.8050 79.6923 TC 25 20.8075 79.6909 1 8 278
1959253N21086 1959 78 NI BB NOT_NAMED 1959-09-14 00:00:00 TS 20.8993 79.2961 main 0 0 O________OP___ jtwc_io IO121959 20.9000 79.3000 -1 20.9000 79.3000 TC 25 20.8978 79.2884 1 8 294
1959253N21086 1959 78 NI BB NOT_NAMED 1959-09-14 03:00:00 TS 21.1216 78.9283 main 0 0 P________PO___ IO121959 21.1324 78.9424 -1 21.1324 78.9424 TC 25 21.1000 78.9000 1 9 312
1959253N21086 1959 78 NI BB NOT_NAMED 1959-09-14 06:00:00 TS 21.4920 78.5788 main 0 0 O________OP___ jtwc_io IO121959 21.5000 78.6000 -1 21.5000 78.6000 TC 25 21.4759 78.5365 1 11 323
1959253N21086 1959 78 NI BB NOT_NAMED 1959-09-14 09:00:00 TS 21.9715 78.2287 main 0 0 P________PP___ IO121959 21.9774 78.2500 -1 21.9774 78.2500 TC 25 21.9596 78.1861 1 12 327
1959253N21086 1959 78 NI AS NOT_NAMED 1959-09-14 12:00:00 TS 22.4962 77.8808 main 0 0 O________OP___ jtwc_io IO121959 22.5000 77.9000 -1 22.5000 77.9000 TC 25 22.4885 77.8425 1 12 327
1959253N21086 1959 78 NI AS NOT_NAMED 1959-09-14 15:00:00 TS 22.9766 77.5332 main 0 0 P________PO___ IO121959 22.9649 77.5498 -1 22.9649 77.5498 TC 25 23.0000 77.5000 1 11 325
1959253N21086 1959 78 NI AS NOT_NAMED 1959-09-14 18:00:00 TS 23.4181 77.1817 main 0 0 O________OP___ jtwc_io IO121959 23.4000 77.2000 -1 23.4000 77.2000 TC 25 23.4454 77.1544 1 11 323
1959253N21086 1959 78 NI AS NOT_NAMED 1959-09-14 21:00:00 TS 23.8175 76.8311 main 0 0 P________PP___ IO121959 23.8077 76.8504 -1 23.8077 76.8504 TC 25 23.8306 76.8054 1 10 320
1959253N21086 1959 78 NI AS NOT_NAMED 1959-09-15 00:00:00 TS 24.1878 76.4769 main 0 0 O________OP___ jtwc_io IO121959 24.2000 76.5000 -1 24.2000 76.5000 TC 25 24.1756 76.4538 1 10 316
1959253N21086 1959 78 NI AS NOT_NAMED 1959-09-15 03:00:00 NR 24.5000 76.1000 main 0 __________O___ IO121959 -1 TC 24.5000 76.1000 1 9 312

IBTrACS Databaseについて

本データベースは、米国NOAAが公開する1842年以降の世界の熱帯低気圧のベストトラックデータアーカイブInternational Best Track Archive for Climate Stewardship (IBTrACS)を、ウェブで閲覧しやすい形式に変換したものです。

最終更新日:2021-10-19